Solikamsk, Russia
Current Conditions -  °F | °C
As of 11:30 PM on Saturday 25 Oct 2014 (Local Time) from USPP Reporting Station
Clear Clear  
Wind Chill:   Ceiling: Unl
Heat Index: 10°   Visibility: 6mi
Dew Point:   Wind: 7mph
Humidity: 85%   Direction: 310°NW
Pressure: 30.24"   Gusts: NA
Location:  59.64°N, 56.75°E
Report Text: USPP 251830Z 31003MPS CAVOK M12/M14 Q1024 03810255 NOSIG RMKQFE757/1010
Loading
Personal Weather Stations






























Interactive Weather Map
Tropical Storm Tracking
New forecast layout! Learn more

10-Day Weather Forecast

Advertisements
Track Severe Weather on mobile